Time;durP1;ratioP1;P1;durP2;ratioP2;P2;SDS_P1;SDS_P2;PMS_P1;PMS_P2;Temp;Humidity;BMP_temperature;BMP_pressure;BME280_temperature;BME280_humidity;BME280_pressure;Samples;Min_cycle;Max_cycle;Signal;HPM_P1;HPM_P2
2022/06/30 00:00:43;;;;;;;8.85;4.13;;;19.60;99.90;;;;;;6277632;22;20023;-86
2022/06/30 00:03:16;;;;;;;14.05;4.82;;;19.50;99.90;;;;;;6249849;22;20020;-87
2022/06/30 00:05:48;;;;;;;9.73;4.60;;;19.50;99.90;;;;;;6277483;22;20448;-86
2022/06/30 00:08:13;;;;;;;9.07;4.07;;;19.40;99.90;;;;;;6278880;22;20332;-87
2022/06/30 00:10:39;;;;;;;9.30;4.60;;;20.00;99.90;;;;;;6278618;22;20072;-87
2022/06/30 00:13:08;;;;;;;8.95;4.35;;;19.20;99.90;;;;;;6250246;22;20516;-87
2022/06/30 00:15:37;;;;;;;9.43;4.30;;;19.20;99.90;;;;;;6278559;22;20019;-87
2022/06/30 00:18:06;;;;;;;9.00;4.45;;;19.10;99.90;;;;;;6250702;22;20019;-87
2022/06/30 00:20:37;;;;;;;9.18;4.65;;;19.10;99.90;;;;;;6248961;22;20347;-87
2022/06/30 00:23:55;;;;;;;9.10;4.30;;;19.00;99.90;;;;;;6276337;22;20030;-85
2022/06/30 00:27:15;;;;;;;9.88;4.22;;;18.70;99.90;;;;;;6247715;22;20441;-85
2022/06/30 00:31:02;;;;;;;8.82;4.40;;;19.10;99.90;;;;;;6249047;22;20094;-86
2022/06/30 00:33:28;;;;;;;8.68;4.57;;;18.90;99.90;;;;;;6249915;22;20141;-85
2022/06/30 00:36:11;;;;;;;9.48;4.60;;;19.20;99.90;;;;;;6250139;22;20023;-86
2022/06/30 00:38:46;;;;;;;9.45;4.97;;;18.80;99.90;;;;;;6279071;22;20454;-85
2022/06/30 00:41:15;;;;;;;9.00;4.65;;;18.50;99.90;;;;;;6278482;22;20012;-86
2022/06/30 00:43:47;;;;;;;10.05;5.10;;;19.20;99.90;;;;;;6278866;22;20336;-86
2022/06/30 00:46:16;;;;;;;9.23;4.78;;;18.60;99.90;;;;;;6279696;22;20016;-86
2022/06/30 00:48:54;;;;;;;9.38;4.75;;;18.60;99.90;;;;;;6277558;22;20089;-86
2022/06/30 00:51:37;;;;;;;10.23;4.85;;;19.30;99.90;;;;;;6277691;22;20095;-85
2022/06/30 00:54:21;;;;;;;9.55;4.70;;;19.40;99.90;;;;;;6251350;22;20019;-85
2022/06/30 00:56:53;;;;;;;10.75;4.80;;;18.60;99.90;;;;;;6250835;22;20041;-85
2022/06/30 00:59:22;;;;;;;9.95;4.80;;;18.50;99.90;;;;;;6277358;22;20019;-86
2022/06/30 01:01:49;;;;;;;10.23;5.07;;;19.40;99.90;;;;;;6250158;22;20386;-85
2022/06/30 01:04:16;;;;;;;12.27;5.05;;;18.50;99.90;;;;;;6283137;22;20015;-86
2022/06/30 01:06:46;;;;;;;12.63;4.97;;;18.50;99.90;;;;;;6255158;22;20091;-86
2022/06/30 01:12:41;;;;;;;9.32;4.97;;;18.40;99.90;;;;;;6278630;22;20012;-85
2022/06/30 01:14:43;;;;;;;9.75;4.72;;;18.70;99.90;;;;;;6277604;22;20399;-86
2022/06/30 01:17:10;;;;;;;10.27;5.35;;;18.30;99.90;;;;;;6249614;22;20058;-85
2022/06/30 01:19:36;;;;;;;11.18;4.80;;;18.30;99.90;;;;;;6277748;22;20436;-86
2022/06/30 01:22:02;;;;;;;10.00;5.22;;;18.30;99.90;;;;;;6274893;22;20019;-85
2022/06/30 01:24:28;;;;;;;8.88;4.70;;;18.30;99.90;;;;;;6278101;22;20020;-85
2022/06/30 01:26:57;;;;;;;9.07;4.80;;;18.40;99.90;;;;;;6249980;22;20023;-85
2022/06/30 01:29:23;;;;;;;10.13;4.70;;;18.40;99.90;;;;;;6249598;22;20020;-85
2022/06/30 01:31:49;;;;;;;9.20;4.70;;;18.30;99.90;;;;;;6277652;22;20051;-86
2022/06/30 01:34:15;;;;;;;10.13;5.00;;;18.30;99.90;;;;;;6249623;22;20020;-86
2022/06/30 01:36:42;;;;;;;9.48;4.88;;;18.30;99.90;;;;;;6249456;22;20015;-86
2022/06/30 01:39:07;;;;;;;9.43;5.18;;;18.40;99.90;;;;;;6249770;22;20095;-85
2022/06/30 01:41:33;;;;;;;9.82;4.80;;;18.30;99.90;;;;;;6277305;22;20035;-85
2022/06/30 01:43:59;;;;;;;9.45;5.00;;;18.40;99.90;;;;;;6249492;22;20015;-85
2022/06/30 01:46:25;;;;;;;10.40;4.70;;;18.60;99.90;;;;;;6250986;22;20054;-85
2022/06/30 01:48:50;;;;;;;8.93;5.10;;;18.30;99.90;;;;;;6277733;22;20016;-86
2022/06/30 01:51:16;;;;;;;9.68;4.50;;;18.20;99.90;;;;;;6249214;22;20023;-85
2022/06/30 01:53:42;;;;;;;9.65;4.55;;;18.50;99.90;;;;;;6276945;22;20044;-85
2022/06/30 01:56:07;;;;;;;10.00;4.82;;;18.30;99.90;;;;;;6250519;22;20035;-86
2022/06/30 01:58:33;;;;;;;10.02;4.90;;;18.60;99.90;;;;;;6276558;22;20019;-85
2022/06/30 02:00:58;;;;;;;9.32;4.85;;;18.20;99.90;;;;;;6277852;22;20011;-85
2022/06/30 02:03:24;;;;;;;10.07;4.70;;;18.30;99.90;;;;;;6276093;22;20012;-86
2022/06/30 02:05:50;;;;;;;9.43;4.80;;;18.20;99.90;;;;;;6274873;22;20016;-86
2022/06/30 02:08:16;;;;;;;9.02;4.65;;;18.50;99.90;;;;;;6275333;22;20383;-86
2022/06/30 02:10:43;;;;;;;9.30;4.65;;;18.20;99.90;;;;;;6276316;22;20060;-86
2022/06/30 02:13:09;;;;;;;10.50;4.70;;;18.20;99.90;;;;;;6249033;22;20027;-86
2022/06/30 02:15:36;;;;;;;10.32;5.15;;;18.10;99.90;;;;;;6250553;22;20015;-85
2022/06/30 02:18:04;;;;;;;9.48;4.65;;;18.50;99.90;;;;;;6276252;22;20020;-86
2022/06/30 02:20:30;;;;;;;9.68;4.72;;;18.10;99.90;;;;;;6249064;22;20023;-86
2022/06/30 02:22:58;;;;;;;8.60;4.60;;;18.00;99.90;;;;;;6249962;22;20015;-86
2022/06/30 02:25:30;;;;;;;8.88;4.40;;;18.60;99.90;;;;;;6249189;22;20020;-86
2022/06/30 02:27:57;;;;;;;9.90;4.78;;;17.90;99.90;;;;;;6275114;22;20451;-85
2022/06/30 02:30:22;;;;;;;11.93;4.53;;;17.90;99.90;;;;;;6250158;22;20336;-85
2022/06/30 02:32:52;;;;;;;9.80;4.80;;;17.90;99.90;;;;;;6248544;22;20015;-86
2022/06/30 02:35:18;;;;;;;9.90;4.80;;;17.90;99.90;;;;;;6249605;22;20027;-86
2022/06/30 02:37:46;;;;;;;13.05;5.00;;;17.80;99.90;;;;;;6248964;22;20016;-86
2022/06/30 02:40:12;;;;;;;11.45;4.82;;;17.90;99.90;;;;;;6248951;22;20122;-86
2022/06/30 02:42:38;;;;;;;10.55;4.43;;;17.80;99.90;;;;;;6250252;22;20065;-86
2022/06/30 02:45:04;;;;;;;12.95;4.93;;;18.00;99.90;;;;;;6252317;22;20436;-86
2022/06/30 02:47:35;;;;;;;10.70;4.40;;;17.80;99.90;;;;;;6277196;22;20019;-86
2022/06/30 02:50:03;;;;;;;10.10;5.00;;;17.80;99.90;;;;;;6249759;22;20074;-86
2022/06/30 02:52:32;;;;;;;10.68;5.05;;;18.00;99.90;;;;;;6249197;22;20053;-86
2022/06/30 02:54:59;;;;;;;11.02;4.65;;;17.70;99.90;;;;;;6249342;22;20050;-86
2022/06/30 02:57:25;;;;;;;10.38;4.78;;;18.20;99.90;;;;;;6277679;22;20019;-86
2022/06/30 02:59:51;;;;;;;10.77;5.28;;;17.80;99.90;;;;;;6277452;22;20019;-86
2022/06/30 03:02:17;;;;;;;11.15;4.78;;;17.60;99.90;;;;;;6249768;22;20015;-86
2022/06/30 03:04:42;;;;;;;12.00;4.78;;;17.60;99.90;;;;;;6276750;22;20029;-86
2022/06/30 03:07:08;;;;;;;9.65;4.90;;;17.50;99.90;;;;;;6250332;22;20016;-86
2022/06/30 03:09:34;;;;;;;9.27;4.80;;;17.50;99.90;;;;;;6249133;22;20016;-86
2022/06/30 03:12:00;;;;;;;9.52;5.07;;;17.50;99.90;;;;;;6276764;22;20027;-86
2022/06/30 03:14:26;;;;;;;9.45;4.97;;;17.90;99.90;;;;;;6250342;22;20440;-86
2022/06/30 03:16:52;;;;;;;9.43;5.13;;;17.90;99.90;;;;;;6248658;22;20528;-86
2022/06/30 03:19:19;;;;;;;10.07;5.18;;;17.50;99.90;;;;;;6249700;22;20510;-86
2022/06/30 03:21:44;;;;;;;8.98;4.65;;;17.30;99.90;;;;;;6275099;22;20012;-86
2022/06/30 03:24:10;;;;;;;11.85;5.07;;;17.80;99.90;;;;;;6249576;22;20157;-86
2022/06/30 03:26:36;;;;;;;10.43;5.07;;;17.30;99.90;;;;;;6277165;22;20091;-86
2022/06/30 03:29:03;;;;;;;9.80;5.18;;;17.40;99.90;;;;;;6248213;22;20011;-86
2022/06/30 03:31:30;;;;;;;10.18;5.20;;;17.30;99.90;;;;;;6249533;22;20027;-86
2022/06/30 03:33:56;;;;;;;9.45;5.10;;;17.20;99.90;;;;;;6277455;22;20011;-86
2022/06/30 03:36:22;;;;;;;10.07;4.93;;;17.60;99.90;;;;;;6249147;22;20030;-86
2022/06/30 03:38:47;;;;;;;10.55;5.30;;;17.30;99.90;;;;;;6275937;22;20015;-87
2022/06/30 03:41:13;;;;;;;11.00;4.82;;;17.20;99.90;;;;;;6276711;22;20501;-86
2022/06/30 03:43:38;;;;;;;9.70;4.68;;;17.30;99.90;;;;;;6276597;22;20275;-86
2022/06/30 03:46:04;;;;;;;11.18;5.40;;;17.20;99.90;;;;;;6276971;22;20019;-86
2022/06/30 03:48:30;;;;;;;9.02;4.82;;;17.30;99.90;;;;;;6252222;22;20494;-86
2022/06/30 03:50:55;;;;;;;10.30;5.05;;;17.70;99.90;;;;;;6277291;22;20340;-86
2022/06/30 03:53:21;;;;;;;10.55;5.30;;;17.20;99.90;;;;;;6250666;22;20015;-86
2022/06/30 03:55:47;;;;;;;11.60;5.55;;;17.20;99.90;;;;;;6248295;22;20028;-86
2022/06/30 03:58:12;;;;;;;9.38;4.95;;;17.10;99.90;;;;;;6275670;22;20020;-86
2022/06/30 04:00:38;;;;;;;10.23;5.35;;;17.80;99.90;;;;;;6276568;22;20019;-86
2022/06/30 04:03:04;;;;;;;10.52;5.18;;;17.20;99.90;;;;;;6248963;22;20171;-86
2022/06/30 04:05:30;;;;;;;11.23;5.65;;;17.40;99.90;;;;;;6247931;22;20019;-86
2022/06/30 04:07:55;;;;;;;9.73;5.18;;;17.20;99.90;;;;;;6275832;22;20324;-86
2022/06/30 04:10:21;;;;;;;9.45;5.15;;;17.70;99.90;;;;;;6251812;22;20018;-86
2022/06/30 04:12:47;;;;;;;11.30;5.38;;;17.30;99.90;;;;;;6280067;22;20023;-86
2022/06/30 04:15:13;;;;;;;11.80;5.50;;;17.30;99.90;;;;;;6253221;22;20069;-86
2022/06/30 04:17:39;;;;;;;10.38;5.75;;;17.70;99.90;;;;;;6249465;22;20020;-86
2022/06/30 04:20:15;;;;;;;9.82;5.55;;;17.30;99.90;;;;;;6247862;22;20055;-86
2022/06/30 04:22:46;;;;;;;10.23;5.55;;;17.30;99.90;;;;;;6275945;22;20498;-86
2022/06/30 04:25:12;;;;;;;10.35;5.53;;;17.30;99.90;;;;;;6249512;22;20027;-86
2022/06/30 04:27:44;;;;;;;10.88;5.30;;;17.30;99.90;;;;;;6250144;22;20012;-86
2022/06/30 04:30:13;;;;;;;10.23;5.88;;;17.40;99.90;;;;;;6278741;22;20016;-86
2022/06/30 04:32:42;;;;;;;10.45;5.60;;;17.40;99.90;;;;;;6277247;22;20314;-86
2022/06/30 04:35:19;;;;;;;10.23;5.63;;;17.40;99.90;;;;;;6250314;22;20024;-86
2022/06/30 04:37:58;;;;;;;10.52;5.70;;;18.10;99.90;;;;;;6278470;22;20015;-86
2022/06/30 04:44:09;;;;;;;12.35;5.45;;;17.50;99.90;;;;;;6276450;22;20344;-86
2022/06/30 04:47:06;;;;;;;10.77;5.57;;;17.30;99.90;;;;;;6249616;22;20094;-86
2022/06/30 04:49:44;;;;;;;12.25;5.85;;;17.60;99.90;;;;;;6278826;22;20474;-85
2022/06/30 04:52:18;;;;;;;10.43;5.90;;;17.60;99.90;;;;;;6278434;22;20016;-85
2022/06/30 04:54:47;;;;;;;11.75;5.72;;;17.70;99.90;;;;;;6250204;22;20051;-86
2022/06/30 04:57:18;;;;;;;11.20;5.63;;;18.00;99.90;;;;;;6276556;22;20024;-85
2022/06/30 04:59:53;;;;;;;10.02;5.68;;;17.80;99.90;;;;;;6250511;22;20020;-86
2022/06/30 05:02:25;;;;;;;11.00;5.88;;;17.70;99.90;;;;;;6274706;22;20467;-86
2022/06/30 05:04:50;;;;;;;10.50;5.88;;;17.80;99.90;;;;;;6277165;22;20019;-86
2022/06/30 05:07:21;;;;;;;11.38;5.90;;;18.50;99.90;;;;;;6249578;22;20013;-86
2022/06/30 05:10:02;;;;;;;10.95;5.70;;;17.80;99.90;;;;;;6253028;22;20008;-86
2022/06/30 05:12:31;;;;;;;10.63;5.57;;;18.60;99.90;;;;;;6250828;22;20023;-86
2022/06/30 05:18:31;;;;;;;12.15;5.95;;;17.90;99.90;;;;;;6183446;23;20021;-86
2022/06/30 05:20:59;;;;;;;10.25;5.78;;;18.40;99.90;;;;;;6158131;23;20473;-86
2022/06/30 05:23:31;;;;;;;11.65;5.60;;;18.20;99.90;;;;;;6182725;23;20021;-86
2022/06/30 05:29:00;;;;;;;11.82;5.47;;;18.10;99.90;;;;;;6182369;23;20038;-86
2022/06/30 05:31:38;;;;;;;13.02;6.07;;;18.40;99.90;;;;;;6192708;22;20083;-86
2022/06/30 05:34:10;;;;;;;10.40;5.70;;;19.10;99.90;;;;;;6249493;22;20329;-86
2022/06/30 05:36:48;;;;;;;12.93;5.78;;;18.30;99.90;;;;;;6275460;22;20016;-86
2022/06/30 05:41:55;;;;;;;10.70;5.97;;;18.40;99.90;;;;;;6276210;22;20456;-87
2022/06/30 05:47:57;;;;;;;10.40;5.80;;;18.60;99.90;;;;;;6276652;22;20031;-89
2022/06/30 05:50:31;;;;;;;10.40;5.97;;;18.80;99.90;;;;;;6210766;22;20728;-87
2022/06/30 05:53:19;;;;;;;10.30;5.72;;;18.90;99.90;;;;;;6248779;22;20086;-87
2022/06/30 05:56:22;;;;;;;9.80;5.90;;;18.90;99.90;;;;;;6248081;22;20024;-89
2022/06/30 05:58:54;;;;;;;11.32;5.78;;;18.90;99.90;;;;;;6249352;22;20008;-90
2022/06/30 06:02:02;;;;;;;10.60;6.07;;;19.10;99.90;;;;;;6250068;22;20103;-92
2022/06/30 06:04:46;;;;;;;11.15;5.72;;;19.20;99.90;;;;;;6248323;22;20020;-90
2022/06/30 06:07:57;;;;;;;11.98;6.13;;;19.20;99.90;;;;;;6249429;22;20110;-90
2022/06/30 06:12:58;;;;;;;11.82;6.07;;;19.50;99.90;;;;;;6273759;22;20020;-88
2022/06/30 06:15:32;;;;;;;12.55;6.03;;;19.60;99.90;;;;;;6277108;22;20014;-89
2022/06/30 06:18:17;;;;;;;12.27;6.30;;;19.60;99.90;;;;;;6248124;22;20451;-88
2022/06/30 06:21:49;;;;;;;11.60;6.35;;;19.70;99.90;;;;;;6248605;22;20027;-89
2022/06/30 06:25:26;;;;;;;11.63;6.25;;;19.70;99.90;;;;;;6248561;22;20448;-88
2022/06/30 06:30:58;;;;;;;10.63;6.03;;;20.00;99.90;;;;;;6063806;23;20069;-91
2022/06/30 06:33:34;;;;;;;11.35;6.32;;;20.00;99.90;;;;;;6163410;23;20023;-86
2022/06/30 06:36:18;;;;;;;10.52;5.88;;;20.10;99.90;;;;;;6064486;23;20206;-88
2022/06/30 06:38:59;;;;;;;11.52;5.90;;;20.60;99.90;;;;;;6162034;23;20348;-87
2022/06/30 06:41:37;;;;;;;10.60;6.20;;;20.40;99.90;;;;;;6063772;23;20367;-87
2022/06/30 06:44:03;;;;;;;11.35;5.80;;;20.50;99.90;;;;;;6064038;23;20070;-89
2022/06/30 06:46:38;;;;;;;10.65;5.57;;;20.60;99.90;;;;;;6063146;23;20068;-87
2022/06/30 06:49:06;;;;;;;13.65;5.80;;;20.70;99.90;;;;;;6163277;23;20149;-87
2022/06/30 06:51:32;;;;;;;10.75;5.97;;;20.80;99.90;;;;;;6163323;23;20076;-88
2022/06/30 06:54:10;;;;;;;11.02;6.20;;;20.90;99.90;;;;;;6062863;23;20387;-87
2022/06/30 06:56:36;;;;;;;11.63;6.53;;;21.00;99.90;;;;;;6163268;23;20015;-87
2022/06/30 06:59:12;;;;;;;11.23;6.10;;;21.20;99.90;;;;;;6162788;23;20019;-88
2022/06/30 07:01:47;;;;;;;10.15;5.78;;;21.30;99.90;;;;;;6062482;23;20513;-88
2022/06/30 07:04:19;;;;;;;11.20;6.50;;;21.40;99.90;;;;;;6063613;23;20019;-89
2022/06/30 07:06:54;;;;;;;11.20;6.22;;;21.60;99.90;;;;;;6161464;23;20459;-88
2022/06/30 07:09:38;;;;;;;11.23;6.40;;;21.80;99.90;;;;;;6162784;23;20042;-88
2022/06/30 07:12:15;;;;;;;10.88;6.65;;;22.00;99.90;;;;;;6161963;23;20019;-87
2022/06/30 07:14:59;;;;;;;10.23;6.43;;;22.00;99.90;;;;;;6061953;23;20076;-89
2022/06/30 07:17:36;;;;;;;11.00;6.47;;;22.20;99.90;;;;;;6064424;23;20015;-89
2022/06/30 07:20:13;;;;;;;10.88;6.50;;;22.30;99.90;;;;;;6072698;23;20023;-89
2022/06/30 07:23:35;;;;;;;11.27;6.97;;;22.30;99.90;;;;;;6258136;22;20026;-88
2022/06/30 07:26:00;;;;;;;11.80;7.15;;;22.40;99.90;;;;;;6249875;22;20519;-89
2022/06/30 07:28:28;;;;;;;10.57;6.82;;;22.50;99.90;;;;;;6280096;22;20016;-89
2022/06/30 07:30:53;;;;;;;12.63;6.55;;;22.70;99.90;;;;;;6277197;22;20012;-90
2022/06/30 07:33:31;;;;;;;11.18;7.03;;;22.80;99.90;;;;;;6278042;22;20019;-89
2022/06/30 07:36:00;;;;;;;11.70;6.78;;;22.90;99.90;;;;;;6245700;22;20090;-90
2022/06/30 07:39:21;;;;;;;11.85;6.30;;;23.00;99.90;;;;;;6274818;22;20038;-87
2022/06/30 07:45:51;;;;;;;11.02;7.00;;;23.20;99.90;;;;;;6276207;22;20019;-87
2022/06/30 07:48:29;;;;;;;10.68;7.07;;;23.40;99.90;;;;;;6249616;22;20069;-88
2022/06/30 07:51:32;;;;;;;11.07;6.90;;;23.60;99.90;;;;;;6275999;22;20015;-89
2022/06/30 07:54:06;;;;;;;10.65;6.88;;;23.50;99.90;;;;;;6249052;22;20073;-89
2022/06/30 07:56:32;;;;;;;12.38;7.20;;;23.70;99.90;;;;;;6246882;22;20016;-88
2022/06/30 07:59:16;;;;;;;14.13;6.93;;;23.80;99.90;;;;;;6276229;22;20015;-89
2022/06/30 08:01:57;;;;;;;10.63;6.93;;;24.00;99.90;;;;;;6276301;22;20011;-90
2022/06/30 08:04:41;;;;;;;11.88;6.70;;;24.10;99.90;;;;;;6277526;22;20007;-89
2022/06/30 08:07:37;;;;;;;10.63;6.50;;;24.20;99.90;;;;;;6250676;22;20445;-89
2022/06/30 08:10:05;;;;;;;15.65;7.45;;;24.30;99.90;;;;;;6275822;22;20420;-88
2022/06/30 08:12:49;;;;;;;12.35;6.90;;;24.60;99.90;;;;;;6278398;22;20046;-88
2022/06/30 08:15:39;;;;;;;11.75;6.88;;;24.70;99.90;;;;;;6277608;22;20015;-89
2022/06/30 08:18:08;;;;;;;12.50;7.22;;;24.80;99.90;;;;;;6275656;22;20133;-91
2022/06/30 08:20:55;;;;;;;11.48;7.63;;;24.90;99.90;;;;;;6250879;22;20436;-90
2022/06/30 08:23:30;;;;;;;12.50;7.20;;;24.90;99.90;;;;;;6250797;22;20015;-90
2022/06/30 08:26:34;;;;;;;12.13;7.57;;;25.10;99.90;;;;;;6248770;22;20091;-88
2022/06/30 08:29:25;;;;;;;13.45;7.32;;;25.20;99.90;;;;;;6250681;22;20027;-89
2022/06/30 08:32:29;;;;;;;10.77;7.28;;;25.30;99.90;;;;;;6276781;22;20086;-88
2022/06/30 08:35:35;;;;;;;11.95;7.97;;;25.40;99.90;;;;;;6277467;22;20438;-92
2022/06/30 08:49:30;;;;;;;10.82;7.97;;;25.90;99.90;;;;;;6277179;22;20379;-90
2022/06/30 08:56:58;;;;;;;12.13;8.77;;;26.30;99.90;;;;;;6157852;23;20025;-89
2022/06/30 08:59:24;;;;;;;13.07;8.38;;;26.10;99.90;;;;;;6182585;23;20264;-90
2022/06/30 09:02:05;;;;;;;12.25;8.27;;;26.30;99.90;;;;;;6159228;23;20017;-91
2022/06/30 09:05:12;;;;;;;12.45;8.70;;;26.50;99.90;;;;;;6184136;23;20013;-90
2022/06/30 09:14:47;;;;;;;12.27;9.35;;;26.90;99.90;;;;;;6184736;23;20027;-90
2022/06/30 09:17:56;;;;;;;11.77;8.52;;;27.00;99.90;;;;;;6161950;23;20494;-90
2022/06/30 09:27:41;;;;;;;13.18;9.75;;;27.10;99.90;;;;;;6234306;22;20063;-91
2022/06/30 09:30:19;;;;;;;13.65;10.48;;;27.20;99.90;;;;;;6246507;23;20023;-91
2022/06/30 09:33:13;;;;;;;13.93;8.60;;;27.20;99.90;;;;;;6181291;23;20020;-93
2022/06/30 09:39:49;;;;;;;14.50;10.73;;;27.40;99.90;;;;;;6246942;23;20066;-89
2022/06/30 09:42:58;;;;;;;14.23;10.38;;;27.40;99.90;;;;;;6240388;23;20020;-89
2022/06/30 09:45:45;;;;;;;13.80;9.90;;;27.60;99.90;;;;;;6219388;23;20039;-87
2022/06/30 09:51:51;;;;;;;13.75;10.15;;;27.70;99.90;;;;;;6217959;23;20939;-89
2022/06/30 09:54:23;;;;;;;12.80;9.30;;;27.80;99.90;;;;;;6220238;23;20099;-88
2022/06/30 09:57:12;;;;;;;12.38;9.48;;;27.90;99.90;;;;;;6217384;23;20016;-88
2022/06/30 10:19:29;;;;;;;12.50;8.93;;;29.00;99.90;;;;;;6275420;22;20101;-89
2022/06/30 10:22:30;;;;;;;12.55;8.55;;;29.10;99.90;;;;;;6246955;22;20382;-90
2022/06/30 10:24:59;;;;;;;11.27;8.48;;;29.20;99.90;;;;;;6217881;22;20247;-88
2022/06/30 10:27:41;;;;;;;11.45;8.35;;;29.40;99.90;;;;;;6248876;22;20023;-86
2022/06/30 10:32:49;;;;;;;13.35;9.43;;;29.80;99.90;;;;;;6274205;22;20030;-86
2022/06/30 10:35:58;;;;;;;11.25;8.88;;;29.80;99.90;;;;;;6277515;22;20016;-87
2022/06/30 10:38:55;;;;;;;12.32;9.25;;;29.80;99.90;;;;;;6247245;22;20325;-87
2022/06/30 10:42:01;;;;;;;14.05;9.52;;;29.60;99.90;;;;;;6249502;22;20102;-86
2022/06/30 10:44:34;;;;;;;11.98;9.18;;;29.60;99.90;;;;;;6123373;23;20093;-87
2022/06/30 10:47:37;;;;;;;11.52;8.30;;;29.80;99.90;;;;;;6122061;23;20018;-90
2022/06/30 10:50:45;;;;;;;12.83;7.40;;;30.00;99.90;;;;;;6218808;22;20019;-90
2022/06/30 10:54:07;;;;;;;10.60;7.43;;;30.00;99.90;;;;;;6248407;22;20251;-88
2022/06/30 11:04:34;;;;;;;11.57;9.00;;;29.30;99.90;;;;;;6270632;22;19922;-89
2022/06/30 11:07:43;;;;;;;;;;;;;;;;;;;;;
2022/06/30 11:10:31;;;;;;;12.70;8.48;;;28.60;99.90;;;;;;6068444;23;20022;-87
2022/06/30 11:13:07;;;;;;;;;;;;;;;;;;;;;
2022/06/30 11:16:18;;;;;;;11.43;8.02;;;28.80;99.90;;;;;;6039882;23;20550;-88
2022/06/30 11:18:53;;;;;;;10.90;7.32;;;28.90;99.90;;;;;;5956054;24;20103;-89
2022/06/30 11:22:02;;;;;;;10.88;7.32;;;29.30;99.90;;;;;;6142118;22;20020;-88
2022/06/30 11:24:50;;;;;;;12.77;8.05;;;29.30;99.90;;;;;;6248611;22;20387;-88
2022/06/30 11:28:40;;;;;;;11.35;7.35;;;29.30;99.90;;;;;;6244432;22;20401;-88
2022/06/30 11:32:14;;;;;;;10.40;6.72;;;29.00;99.60;;;;;;6275825;22;20086;-88
2022/06/30 11:43:36;;;;;;;10.25;6.53;;;30.00;96.70;;;;;;6181024;23;20017;-88
2022/06/30 11:46:04;;;;;;;12.10;7.30;;;30.30;96.70;;;;;;6181040;23;20032;-89
2022/06/30 11:48:30;;;;;;;11.10;6.20;;;30.50;97.30;;;;;;6181349;23;20009;-86
2022/06/30 11:51:27;;;;;;;11.15;5.40;;;30.70;97.50;;;;;;6155808;23;20075;-87
2022/06/30 11:53:56;;;;;;;10.00;5.40;;;30.90;94.90;;;;;;6252741;22;20073;-87
2022/06/30 11:56:56;;;;;;;9.93;6.13;;;30.90;95.20;;;;;;6247144;22;20027;-86
2022/06/30 12:00:03;;;;;;;11.95;5.90;;;30.90;94.30;;;;;;6248261;22;20019;-86
2022/06/30 12:02:53;;;;;;;11.77;5.70;;;30.40;94.50;;;;;;6238363;22;20095;-87
2022/06/30 12:08:25;;;;;;;9.98;6.45;;;30.00;96.10;;;;;;6244483;23;20020;-88
2022/06/30 12:19:08;;;;;;;9.38;5.63;;;30.60;94.90;;;;;;6274419;22;20065;-88
2022/06/30 12:22:08;;;;;;;10.65;5.18;;;30.50;94.80;;;;;;6092561;23;20363;-87
2022/06/30 12:24:51;;;;;;;9.15;5.03;;;30.80;94.10;;;;;;6092098;23;20018;-87
2022/06/30 12:28:18;;;;;;;8.98;5.18;;;31.10;94.60;;;;;;6052034;23;20017;-87
2022/06/30 12:30:42;;;;;;;9.18;5.10;;;30.70;94.40;;;;;;6118897;22;20024;-87
2022/06/30 12:33:56;;;;;;;10.00;5.32;;;30.10;94.40;;;;;;6259882;22;20027;-87
2022/06/30 12:36:46;;;;;;;9.13;5.10;;;29.70;94.50;;;;;;6246840;22;20019;-87
2022/06/30 12:39:30;;;;;;;9.98;4.80;;;29.30;94.60;;;;;;6246869;22;20020;-87
2022/06/30 12:42:11;;;;;;;8.75;4.60;;;29.10;94.60;;;;;;6274492;22;20043;-88
2022/06/30 12:44:56;;;;;;;9.90;4.95;;;29.00;93.70;;;;;;6247120;22;20015;-86
2022/06/30 12:47:22;;;;;;;8.93;4.60;;;29.00;94.60;;;;;;6248028;22;20027;-86
2022/06/30 12:50:28;;;;;;;9.90;4.93;;;29.00;94.50;;;;;;6249740;22;20019;-87
2022/06/30 12:53:35;;;;;;;9.15;4.72;;;29.50;93.90;;;;;;6274416;22;20067;-87
2022/06/30 12:56:22;;;;;;;8.80;4.50;;;30.10;93.10;;;;;;6279559;22;20179;-87
2022/06/30 12:59:17;;;;;;;;;;;;;;;;;;;;;
2022/06/30 13:02:08;;;;;;;12.05;4.80;;;31.10;92.80;;;;;;6246412;22;20016;-87
2022/06/30 13:08:04;;;;;;;9.30;4.75;;;31.50;92.50;;;;;;6275996;22;20016;-87
2022/06/30 13:13:29;;;;;;;8.30;4.20;;;31.30;91.90;;;;;;6248473;22;20019;-87
2022/06/30 13:16:04;;;;;;;9.27;4.47;;;31.50;92.20;;;;;;6275928;22;20023;-87
2022/06/30 13:18:49;;;;;;;9.80;4.65;;;31.50;91.40;;;;;;6249489;22;20436;-87
2022/06/30 13:24:36;;;;;;;9.85;4.75;;;31.70;92.20;;;;;;6276724;22;20074;-86
2022/06/30 13:27:17;;;;;;;10.60;5.13;;;31.90;91.90;;;;;;6274387;22;20706;-86
2022/06/30 13:29:58;;;;;;;11.57;4.97;;;31.80;91.70;;;;;;6249275;22;20401;-86
2022/06/30 13:32:25;;;;;;;10.90;4.68;;;31.80;91.80;;;;;;6246236;22;20078;31
2022/06/30 13:35:09;;;;;;;10.23;5.05;;;31.80;91.50;;;;;;6214505;23;20445;-86
2022/06/30 13:38:09;;;;;;;9.68;5.40;;;31.80;91.70;;;;;;6087318;23;20021;-86
2022/06/30 13:40:40;;;;;;;11.75;5.38;;;31.60;91.00;;;;;;6214897;23;20330;-87
2022/06/30 13:43:12;;;;;;;10.45;4.90;;;31.10;91.20;;;;;;6089032;23;20017;-88
2022/06/30 13:45:56;;;;;;;10.07;4.57;;;31.00;91.40;;;;;;6217048;23;20013;-88
2022/06/30 13:48:34;;;;;;;10.32;4.82;;;31.20;91.80;;;;;;6216014;23;20013;-86
2022/06/30 13:51:34;;;;;;;9.98;4.90;;;31.50;91.50;;;;;;6087162;23;20044;-86
2022/06/30 13:57:49;;;;;;;9.77;5.05;;;31.50;90.80;;;;;;6214857;23;20333;-85
2022/06/30 14:00:33;;;;;;;8.57;4.50;;;31.40;90.60;;;;;;6214199;23;20082;-85
2022/06/30 14:03:14;;;;;;;9.18;4.72;;;31.20;89.80;;;;;;6085519;23;20023;-85
2022/06/30 14:05:52;;;;;;;9.32;4.35;;;31.10;90.30;;;;;;6085813;23;20058;-85
2022/06/30 14:10:54;;;;;;;8.82;4.57;;;30.50;90.70;;;;;;6268868;22;20031;-86
2022/06/30 14:13:35;;;;;;;10.38;4.35;;;30.60;90.90;;;;;;6248680;22;20451;-86
2022/06/30 14:16:09;;;;;;;11.15;4.70;;;30.60;90.60;;;;;;6275339;22;20016;-86
2022/06/30 14:19:12;;;;;;;9.30;4.20;;;30.80;90.40;;;;;;6276445;22;20077;-86
2022/06/30 14:21:44;;;;;;;10.07;4.55;;;30.50;91.00;;;;;;6268658;22;20023;-86
2022/06/30 14:24:17;;;;;;;9.10;4.50;;;30.40;91.30;;;;;;6247852;22;20559;-85
2022/06/30 14:26:49;;;;;;;;;;;30.30;91.30;;;;;;6277026;22;20024;-88
2022/06/30 14:29:33;;;;;;;10.02;4.97;;;30.20;91.70;;;;;;6263012;22;19925;-85
2022/06/30 14:31:59;;;;;;;8.77;4.50;;;30.00;91.50;;;;;;6246923;22;20015;-85
2022/06/30 14:34:28;;;;;;;9.23;4.70;;;30.30;92.00;;;;;;6275817;22;20007;-85
2022/06/30 14:37:14;;;;;;;8.77;4.53;;;30.60;91.70;;;;;;6248152;22;20016;-85
2022/06/30 14:39:40;;;;;;;11.07;5.75;;;30.80;91.40;;;;;;6247677;22;20096;-86
2022/06/30 14:42:59;;;;;;;9.07;5.43;;;30.70;92.00;;;;;;6248533;22;20055;-86
2022/06/30 14:46:01;;;;;;;10.35;6.30;;;30.70;93.70;;;;;;6118112;23;20021;-87
2022/06/30 14:51:57;;;;;;;10.23;5.80;;;30.90;94.50;;;;;;6121329;23;20018;-87
2022/06/30 14:54:39;;;;;;;9.15;5.60;;;31.20;94.40;;;;;;6123345;23;20097;-86
2022/06/30 14:57:20;;;;;;;10.77;6.00;;;31.30;94.60;;;;;;6121811;23;20018;-85
2022/06/30 15:06:41;;;;;;;10.13;5.80;;;31.30;93.70;;;;;;6272547;22;20440;-88
2022/06/30 15:13:28;;;;;;;9.05;5.47;;;31.10;94.10;;;;;;6273164;22;20446;-88
2022/06/30 15:19:21;;;;;;;9.48;4.93;;;30.90;93.40;;;;;;6253269;22;20027;-87
2022/06/30 15:28:56;;;;;;;9.90;5.30;;;30.70;93.20;;;;;;6273618;22;20084;-87
2022/06/30 15:32:25;;;;;;;8.30;4.90;;;30.40;93.60;;;;;;6246931;22;20503;-87
2022/06/30 15:35:09;;;;;;;9.40;5.18;;;30.50;93.70;;;;;;6273262;22;20763;-87
2022/06/30 15:40:58;;;;;;;10.02;5.35;;;30.70;92.70;;;;;;6246531;22;20103;-87
2022/06/30 15:43:36;;;;;;;9.27;5.80;;;30.80;92.80;;;;;;6247639;22;20024;-88
2022/06/30 16:12:20;;;;;;;9.75;5.97;;;30.10;96.00;;;;;;6245063;23;20017;-87
2022/06/30 16:15:08;;;;;;;9.60;5.72;;;30.10;96.30;;;;;;6217637;23;20016;-87
2022/06/30 16:17:40;;;;;;;10.73;6.05;;;30.20;96.00;;;;;;6216903;23;20023;-89
2022/06/30 16:20:18;;;;;;;10.50;5.90;;;30.30;95.80;;;;;;6217772;23;20016;-89
2022/06/30 16:23:05;;;;;;;9.68;5.72;;;30.40;95.50;;;;;;6216827;23;20058;-87
2022/06/30 16:25:33;;;;;;;8.60;5.25;;;30.60;95.50;;;;;;6246357;23;20099;-86
2022/06/30 16:28:32;;;;;;;8.73;4.93;;;30.60;95.20;;;;;;6219559;23;20012;-89
2022/06/30 16:31:13;;;;;;;8.10;4.53;;;30.40;94.50;;;;;;6218809;23;20478;-88
2022/06/30 16:34:03;;;;;;;7.75;4.20;;;30.20;94.60;;;;;;6182400;23;20017;-87
2022/06/30 16:40:00;;;;;;;9.77;4.30;;;30.00;94.00;;;;;;6219527;23;20020;-88
2022/06/30 16:43:01;;;;;;;8.43;4.40;;;29.90;94.20;;;;;;6219794;23;20012;-89
2022/06/30 16:45:30;;;;;;;8.05;4.20;;;30.00;93.90;;;;;;6219100;23;20016;-88
2022/06/30 16:48:01;;;;;;;8.65;4.25;;;30.00;94.00;;;;;;6245458;23;20046;-89
2022/06/30 16:50:36;;;;;;;8.80;4.70;;;30.00;94.30;;;;;;6218524;23;20012;-88